sensor_id;sensor_type;location;lat;lon;timestamp;P1;durP1;ratioP1;P2;durP2;ratioP2
20369;SDS011;10344;47.592;9.600;2023-05-15T00:01:31;4.57;;;3.70;;
20369;SDS011;10344;47.592;9.600;2023-05-15T00:03:57;4.32;;;3.55;;
20369;SDS011;10344;47.592;9.600;2023-05-15T00:06:22;4.30;;;3.60;;
20369;SDS011;10344;47.592;9.600;2023-05-15T00:08:52;3.92;;;3.58;;
20369;SDS011;10344;47.592;9.600;2023-05-15T00:11:17;4.05;;;3.45;;
20369;SDS011;10344;47.592;9.600;2023-05-15T00:13:47;3.60;;;3.30;;
20369;SDS011;10344;47.592;9.600;2023-05-15T00:16:13;4.15;;;3.67;;
20369;SDS011;10344;47.592;9.600;2023-05-15T00:18:39;3.72;;;3.42;;
20369;SDS011;10344;47.592;9.600;2023-05-15T00:21:06;4.57;;;3.50;;
20369;SDS011;10344;47.592;9.600;2023-05-15T00:23:31;3.90;;;3.50;;
20369;SDS011;10344;47.592;9.600;2023-05-15T00:25:57;3.53;;;3.17;;
20369;SDS011;10344;47.592;9.600;2023-05-15T00:28:29;4.95;;;3.65;;
20369;SDS011;10344;47.592;9.600;2023-05-15T00:30:58;4.27;;;3.83;;
20369;SDS011;10344;47.592;9.600;2023-05-15T00:33:26;4.05;;;3.67;;
20369;SDS011;10344;47.592;9.600;2023-05-15T00:35:56;4.10;;;3.70;;
20369;SDS011;10344;47.592;9.600;2023-05-15T00:38:22;4.63;;;3.47;;
20369;SDS011;10344;47.592;9.600;2023-05-15T00:40:54;4.30;;;3.90;;
20369;SDS011;10344;47.592;9.600;2023-05-15T00:43:28;3.50;;;3.20;;
20369;SDS011;10344;47.592;9.600;2023-05-15T00:45:54;3.35;;;3.05;;
20369;SDS011;10344;47.592;9.600;2023-05-15T00:48:22;3.33;;;3.03;;
20369;SDS011;10344;47.592;9.600;2023-05-15T00:50:51;3.42;;;3.10;;
20369;SDS011;10344;47.592;9.600;2023-05-15T00:53:17;3.57;;;3.27;;
20369;SDS011;10344;47.592;9.600;2023-05-15T00:55:50;3.43;;;3.00;;
20369;SDS011;10344;47.592;9.600;2023-05-15T00:58:18;3.75;;;3.30;;
20369;SDS011;10344;47.592;9.600;2023-05-15T01:00:46;3.55;;;3.22;;
20369;SDS011;10344;47.592;9.600;2023-05-15T01:03:16;3.88;;;3.30;;
20369;SDS011;10344;47.592;9.600;2023-05-15T01:05:49;3.55;;;3.20;;
20369;SDS011;10344;47.592;9.600;2023-05-15T01:10:43;3.88;;;3.13;;
20369;SDS011;10344;47.592;9.600;2023-05-15T01:13:14;3.30;;;3.00;;
20369;SDS011;10344;47.592;9.600;2023-05-15T01:15:42;3.70;;;3.28;;
20369;SDS011;10344;47.592;9.600;2023-05-15T01:18:10;3.00;;;2.78;;
20369;SDS011;10344;47.592;9.600;2023-05-15T01:20:42;3.30;;;3.00;;
20369;SDS011;10344;47.592;9.600;2023-05-15T01:32:10;3.00;;;2.70;;
20369;SDS011;10344;47.592;9.600;2023-05-15T01:34:50;3.58;;;3.28;;
20369;SDS011;10344;47.592;9.600;2023-05-15T01:37:30;3.55;;;3.17;;
20369;SDS011;10344;47.592;9.600;2023-05-15T01:39:59;2.95;;;2.75;;
20369;SDS011;10344;47.592;9.600;2023-05-15T01:42:34;3.30;;;3.00;;
20369;SDS011;10344;47.592;9.600;2023-05-15T01:45:13;3.70;;;3.22;;
20369;SDS011;10344;47.592;9.600;2023-05-15T01:47:43;3.65;;;3.30;;
20369;SDS011;10344;47.592;9.600;2023-05-15T01:50:20;3.92;;;3.60;;
20369;SDS011;10344;47.592;9.600;2023-05-15T01:52:47;4.13;;;3.40;;
20369;SDS011;10344;47.592;9.600;2023-05-15T01:55:21;3.70;;;3.17;;
20369;SDS011;10344;47.592;9.600;2023-05-15T01:57:59;4.07;;;3.13;;
20369;SDS011;10344;47.592;9.600;2023-05-15T02:00:34;3.70;;;3.15;;
20369;SDS011;10344;47.592;9.600;2023-05-15T02:03:05;3.60;;;2.72;;
20369;SDS011;10344;47.592;9.600;2023-05-15T02:05:33;3.05;;;2.75;;
20369;SDS011;10344;47.592;9.600;2023-05-15T02:08:00;3.13;;;2.60;;
20369;SDS011;10344;47.592;9.600;2023-05-15T02:10:31;2.83;;;2.53;;
20369;SDS011;10344;47.592;9.600;2023-05-15T02:12:58;3.00;;;2.70;;
20369;SDS011;10344;47.592;9.600;2023-05-15T02:15:30;3.30;;;2.55;;
20369;SDS011;10344;47.592;9.600;2023-05-15T02:17:59;2.70;;;2.50;;
20369;SDS011;10344;47.592;9.600;2023-05-15T02:20:28;3.00;;;2.70;;
20369;SDS011;10344;47.592;9.600;2023-05-15T02:22:53;2.88;;;2.63;;
20369;SDS011;10344;47.592;9.600;2023-05-15T02:25:19;3.40;;;2.60;;
20369;SDS011;10344;47.592;9.600;2023-05-15T02:28:06;2.83;;;2.63;;
20369;SDS011;10344;47.592;9.600;2023-05-15T02:30:54;2.88;;;2.60;;
20369;SDS011;10344;47.592;9.600;2023-05-15T02:33:36;2.65;;;2.45;;
20369;SDS011;10344;47.592;9.600;2023-05-15T02:36:08;3.35;;;2.90;;
20369;SDS011;10344;47.592;9.600;2023-05-15T02:38:54;4.00;;;3.03;;
20369;SDS011;10344;47.592;9.600;2023-05-15T02:41:27;3.38;;;2.88;;
20369;SDS011;10344;47.592;9.600;2023-05-15T02:43:55;3.25;;;2.60;;
20369;SDS011;10344;47.592;9.600;2023-05-15T02:46:24;3.28;;;2.97;;
20369;SDS011;10344;47.592;9.600;2023-05-15T02:48:53;3.80;;;2.90;;
20369;SDS011;10344;47.592;9.600;2023-05-15T02:51:19;4.10;;;2.53;;
20369;SDS011;10344;47.592;9.600;2023-05-15T02:53:45;4.20;;;3.20;;
20369;SDS011;10344;47.592;9.600;2023-05-15T02:56:11;3.40;;;2.70;;
20369;SDS011;10344;47.592;9.600;2023-05-15T02:58:36;2.85;;;2.60;;
20369;SDS011;10344;47.592;9.600;2023-05-15T03:01:03;2.75;;;2.35;;
20369;SDS011;10344;47.592;9.600;2023-05-15T03:03:35;2.67;;;2.30;;
20369;SDS011;10344;47.592;9.600;2023-05-15T03:06:01;3.08;;;2.58;;
20369;SDS011;10344;47.592;9.600;2023-05-15T03:08:26;2.70;;;2.50;;
20369;SDS011;10344;47.592;9.600;2023-05-15T03:10:52;2.60;;;2.22;;
20369;SDS011;10344;47.592;9.600;2023-05-15T03:13:20;2.30;;;2.10;;
20369;SDS011;10344;47.592;9.600;2023-05-15T03:15:46;2.53;;;2.33;;
20369;SDS011;10344;47.592;9.600;2023-05-15T03:18:11;2.25;;;2.05;;
20369;SDS011;10344;47.592;9.600;2023-05-15T03:20:39;2.63;;;2.08;;
20369;SDS011;10344;47.592;9.600;2023-05-15T03:23:13;2.42;;;2.22;;
20369;SDS011;10344;47.592;9.600;2023-05-15T03:25:42;2.20;;;2.00;;
20369;SDS011;10344;47.592;9.600;2023-05-15T03:28:07;2.30;;;2.10;;
20369;SDS011;10344;47.592;9.600;2023-05-15T03:30:34;2.40;;;2.20;;
20369;SDS011;10344;47.592;9.600;2023-05-15T03:33:05;2.10;;;1.90;;
20369;SDS011;10344;47.592;9.600;2023-05-15T03:35:34;2.00;;;1.90;;
20369;SDS011;10344;47.592;9.600;2023-05-15T03:38:02;2.20;;;2.00;;
20369;SDS011;10344;47.592;9.600;2023-05-15T03:40:30;2.05;;;1.85;;
20369;SDS011;10344;47.592;9.600;2023-05-15T03:42:58;2.97;;;2.00;;
20369;SDS011;10344;47.592;9.600;2023-05-15T03:45:24;2.13;;;1.80;;
20369;SDS011;10344;47.592;9.600;2023-05-15T03:47:49;1.90;;;1.80;;
20369;SDS011;10344;47.592;9.600;2023-05-15T03:50:19;2.20;;;1.85;;
20369;SDS011;10344;47.592;9.600;2023-05-15T03:52:47;2.00;;;1.90;;
20369;SDS011;10344;47.592;9.600;2023-05-15T03:55:13;2.40;;;1.77;;
20369;SDS011;10344;47.592;9.600;2023-05-15T03:57:45;2.15;;;1.92;;
20369;SDS011;10344;47.592;9.600;2023-05-15T04:00:13;2.15;;;1.90;;
20369;SDS011;10344;47.592;9.600;2023-05-15T04:02:39;2.30;;;2.10;;
20369;SDS011;10344;47.592;9.600;2023-05-15T04:05:05;2.10;;;1.90;;
20369;SDS011;10344;47.592;9.600;2023-05-15T04:07:36;2.22;;;2.03;;
20369;SDS011;10344;47.592;9.600;2023-05-15T04:10:10;2.20;;;2.00;;
20369;SDS011;10344;47.592;9.600;2023-05-15T04:12:35;2.45;;;2.13;;
20369;SDS011;10344;47.592;9.600;2023-05-15T04:15:14;2.40;;;2.20;;
20369;SDS011;10344;47.592;9.600;2023-05-15T04:17:51;2.75;;;2.20;;
20369;SDS011;10344;47.592;9.600;2023-05-15T04:20:20;2.90;;;2.15;;
20369;SDS011;10344;47.592;9.600;2023-05-15T04:22:47;2.50;;;2.00;;
20369;SDS011;10344;47.592;9.600;2023-05-15T04:25:14;2.50;;;2.30;;
20369;SDS011;10344;47.592;9.600;2023-05-15T04:27:43;2.23;;;2.00;;
20369;SDS011;10344;47.592;9.600;2023-05-15T04:30:10;2.20;;;2.00;;
20369;SDS011;10344;47.592;9.600;2023-05-15T04:32:36;2.65;;;2.30;;
20369;SDS011;10344;47.592;9.600;2023-05-15T04:35:06;2.40;;;1.88;;
20369;SDS011;10344;47.592;9.600;2023-05-15T04:37:39;2.33;;;2.10;;
20369;SDS011;10344;47.592;9.600;2023-05-15T04:40:05;2.28;;;1.90;;
20369;SDS011;10344;47.592;9.600;2023-05-15T04:42:34;2.63;;;2.30;;
20369;SDS011;10344;47.592;9.600;2023-05-15T04:45:07;2.05;;;1.83;;
20369;SDS011;10344;47.592;9.600;2023-05-15T04:47:33;2.43;;;2.23;;
20369;SDS011;10344;47.592;9.600;2023-05-15T04:50:01;2.17;;;1.98;;
20369;SDS011;10344;47.592;9.600;2023-05-15T04:52:27;2.20;;;2.00;;
20369;SDS011;10344;47.592;9.600;2023-05-15T04:55:00;2.27;;;2.07;;
20369;SDS011;10344;47.592;9.600;2023-05-15T04:57:26;2.20;;;2.00;;
20369;SDS011;10344;47.592;9.600;2023-05-15T04:59:54;1.98;;;1.80;;
20369;SDS011;10344;47.592;9.600;2023-05-15T05:02:23;2.25;;;1.92;;
20369;SDS011;10344;47.592;9.600;2023-05-15T05:04:49;2.28;;;2.08;;
20369;SDS011;10344;47.592;9.600;2023-05-15T05:07:17;2.00;;;1.80;;
20369;SDS011;10344;47.592;9.600;2023-05-15T05:09:49;2.78;;;2.40;;
20369;SDS011;10344;47.592;9.600;2023-05-15T05:12:14;1.92;;;1.83;;
20369;SDS011;10344;47.592;9.600;2023-05-15T05:14:40;2.97;;;1.93;;
20369;SDS011;10344;47.592;9.600;2023-05-15T05:17:06;2.00;;;1.80;;
20369;SDS011;10344;47.592;9.600;2023-05-15T05:19:35;2.30;;;2.10;;
20369;SDS011;10344;47.592;9.600;2023-05-15T05:22:03;2.10;;;1.90;;
20369;SDS011;10344;47.592;9.600;2023-05-15T05:24:30;1.95;;;1.85;;
20369;SDS011;10344;47.592;9.600;2023-05-15T05:27:04;2.20;;;2.00;;
20369;SDS011;10344;47.592;9.600;2023-05-15T05:29:30;1.60;;;1.50;;
20369;SDS011;10344;47.592;9.600;2023-05-15T05:32:00;1.98;;;1.80;;
20369;SDS011;10344;47.592;9.600;2023-05-15T05:34:25;1.65;;;1.55;;
20369;SDS011;10344;47.592;9.600;2023-05-15T05:36:51;2.10;;;1.90;;
20369;SDS011;10344;47.592;9.600;2023-05-15T05:39:17;2.17;;;1.98;;
20369;SDS011;10344;47.592;9.600;2023-05-15T05:41:50;2.20;;;2.00;;
20369;SDS011;10344;47.592;9.600;2023-05-15T05:44:18;2.58;;;2.00;;
20369;SDS011;10344;47.592;9.600;2023-05-15T05:46:43;2.00;;;1.80;;
20369;SDS011;10344;47.592;9.600;2023-05-15T05:49:15;2.20;;;2.00;;
20369;SDS011;10344;47.592;9.600;2023-05-15T05:51:40;2.67;;;2.33;;
20369;SDS011;10344;47.592;9.600;2023-05-15T05:54:11;2.30;;;2.10;;
20369;SDS011;10344;47.592;9.600;2023-05-15T05:56:39;2.92;;;2.40;;
20369;SDS011;10344;47.592;9.600;2023-05-15T05:59:11;2.65;;;2.13;;
20369;SDS011;10344;47.592;9.600;2023-05-15T06:01:37;2.63;;;2.20;;
20369;SDS011;10344;47.592;9.600;2023-05-15T06:04:02;2.30;;;2.10;;
20369;SDS011;10344;47.592;9.600;2023-05-15T06:06:28;2.43;;;2.17;;
20369;SDS011;10344;47.592;9.600;2023-05-15T06:08:54;2.28;;;2.08;;
20369;SDS011;10344;47.592;9.600;2023-05-15T06:11:23;2.40;;;2.17;;
20369;SDS011;10344;47.592;9.600;2023-05-15T06:13:51;2.47;;;1.92;;
20369;SDS011;10344;47.592;9.600;2023-05-15T06:16:17;2.03;;;1.83;;
20369;SDS011;10344;47.592;9.600;2023-05-15T06:18:47;2.90;;;2.20;;
20369;SDS011;10344;47.592;9.600;2023-05-15T06:21:18;2.20;;;2.00;;
20369;SDS011;10344;47.592;9.600;2023-05-15T06:23:51;2.45;;;2.22;;
20369;SDS011;10344;47.592;9.600;2023-05-15T06:26:19;2.73;;;2.53;;
20369;SDS011;10344;47.592;9.600;2023-05-15T06:28:49;2.55;;;2.28;;
20369;SDS011;10344;47.592;9.600;2023-05-15T06:31:17;4.30;;;2.72;;
20369;SDS011;10344;47.592;9.600;2023-05-15T06:33:48;3.13;;;2.50;;
20369;SDS011;10344;47.592;9.600;2023-05-15T06:36:13;3.53;;;3.20;;
20369;SDS011;10344;47.592;9.600;2023-05-15T06:38:42;3.63;;;2.58;;
20369;SDS011;10344;47.592;9.600;2023-05-15T06:41:14;3.13;;;2.83;;
20369;SDS011;10344;47.592;9.600;2023-05-15T06:43:40;3.20;;;2.77;;
20369;SDS011;10344;47.592;9.600;2023-05-15T06:46:05;3.20;;;2.87;;
20369;SDS011;10344;47.592;9.600;2023-05-15T06:48:37;4.43;;;2.47;;
20369;SDS011;10344;47.592;9.600;2023-05-15T06:51:11;2.90;;;2.50;;
20369;SDS011;10344;47.592;9.600;2023-05-15T06:53:39;3.37;;;2.63;;
20369;SDS011;10344;47.592;9.600;2023-05-15T06:56:06;3.03;;;2.58;;
20369;SDS011;10344;47.592;9.600;2023-05-15T06:58:36;2.70;;;2.50;;
20369;SDS011;10344;47.592;9.600;2023-05-15T07:01:02;2.88;;;2.55;;
20369;SDS011;10344;47.592;9.600;2023-05-15T07:03:38;3.40;;;3.10;;
20369;SDS011;10344;47.592;9.600;2023-05-15T07:06:03;3.75;;;3.22;;
20369;SDS011;10344;47.592;9.600;2023-05-15T07:08:31;3.30;;;3.00;;
20369;SDS011;10344;47.592;9.600;2023-05-15T07:11:05;2.92;;;2.55;;
20369;SDS011;10344;47.592;9.600;2023-05-15T07:13:31;2.83;;;2.58;;
20369;SDS011;10344;47.592;9.600;2023-05-15T07:16:02;2.33;;;2.10;;
20369;SDS011;10344;47.592;9.600;2023-05-15T07:18:28;2.50;;;2.30;;
20369;SDS011;10344;47.592;9.600;2023-05-15T07:20:54;2.30;;;1.95;;
20369;SDS011;10344;47.592;9.600;2023-05-15T07:23:20;2.20;;;2.00;;
20369;SDS011;10344;47.592;9.600;2023-05-15T07:25:47;2.37;;;2.17;;
20369;SDS011;10344;47.592;9.600;2023-05-15T07:28:13;2.30;;;2.10;;
20369;SDS011;10344;47.592;9.600;2023-05-15T07:30:39;2.20;;;2.00;;
20369;SDS011;10344;47.592;9.600;2023-05-15T07:33:07;2.53;;;2.20;;
20369;SDS011;10344;47.592;9.600;2023-05-15T07:35:38;2.20;;;2.00;;
20369;SDS011;10344;47.592;9.600;2023-05-15T07:38:06;2.30;;;2.10;;
20369;SDS011;10344;47.592;9.600;2023-05-15T07:40:32;3.20;;;2.20;;
20369;SDS011;10344;47.592;9.600;2023-05-15T07:43:03;3.13;;;2.40;;
20369;SDS011;10344;47.592;9.600;2023-05-15T07:45:31;2.70;;;2.42;;
20369;SDS011;10344;47.592;9.600;2023-05-15T07:48:16;3.15;;;2.65;;
20369;SDS011;10344;47.592;9.600;2023-05-15T07:50:50;3.00;;;2.47;;
20369;SDS011;10344;47.592;9.600;2023-05-15T07:53:26;2.72;;;2.53;;
20369;SDS011;10344;47.592;9.600;2023-05-15T07:55:52;3.47;;;2.42;;
20369;SDS011;10344;47.592;9.600;2023-05-15T07:58:18;6.53;;;2.60;;
20369;SDS011;10344;47.592;9.600;2023-05-15T08:00:48;2.78;;;2.58;;
20369;SDS011;10344;47.592;9.600;2023-05-15T08:03:16;2.70;;;2.50;;
20369;SDS011;10344;47.592;9.600;2023-05-15T08:05:42;3.78;;;3.20;;
20369;SDS011;10344;47.592;9.600;2023-05-15T08:08:08;2.83;;;2.63;;
20369;SDS011;10344;47.592;9.600;2023-05-15T08:10:37;3.13;;;2.83;;
20369;SDS011;10344;47.592;9.600;2023-05-15T08:13:05;2.60;;;2.40;;
20369;SDS011;10344;47.592;9.600;2023-05-15T08:15:31;3.03;;;2.50;;
20369;SDS011;10344;47.592;9.600;2023-05-15T08:17:56;2.57;;;2.33;;
20369;SDS011;10344;47.592;9.600;2023-05-15T08:20:25;3.10;;;2.70;;
20369;SDS011;10344;47.592;9.600;2023-05-15T08:22:52;2.45;;;2.20;;
20369;SDS011;10344;47.592;9.600;2023-05-15T08:25:18;4.17;;;2.80;;
20369;SDS011;10344;47.592;9.600;2023-05-15T08:27:49;2.97;;;2.67;;
20369;SDS011;10344;47.592;9.600;2023-05-15T08:30:14;3.00;;;2.55;;
20369;SDS011;10344;47.592;9.600;2023-05-15T08:32:42;2.90;;;2.60;;
20369;SDS011;10344;47.592;9.600;2023-05-15T08:35:14;2.95;;;2.50;;
20369;SDS011;10344;47.592;9.600;2023-05-15T08:37:42;2.50;;;2.30;;
20369;SDS011;10344;47.592;9.600;2023-05-15T08:40:13;2.80;;;2.60;;
20369;SDS011;10344;47.592;9.600;2023-05-15T08:42:59;2.70;;;2.50;;
20369;SDS011;10344;47.592;9.600;2023-05-15T08:45:30;2.90;;;2.60;;
20369;SDS011;10344;47.592;9.600;2023-05-15T08:48:01;2.78;;;2.42;;
20369;SDS011;10344;47.592;9.600;2023-05-15T08:50:46;2.88;;;2.63;;
20369;SDS011;10344;47.592;9.600;2023-05-15T08:53:21;2.53;;;2.33;;
20369;SDS011;10344;47.592;9.600;2023-05-15T08:55:55;2.55;;;2.35;;
20369;SDS011;10344;47.592;9.600;2023-05-15T08:58:28;2.63;;;2.40;;
20369;SDS011;10344;47.592;9.600;2023-05-15T09:00:56;2.40;;;2.10;;
20369;SDS011;10344;47.592;9.600;2023-05-15T09:03:23;2.20;;;2.00;;
20369;SDS011;10344;47.592;9.600;2023-05-15T09:05:50;2.47;;;1.90;;
20369;SDS011;10344;47.592;9.600;2023-05-15T09:08:17;2.08;;;1.85;;
20369;SDS011;10344;47.592;9.600;2023-05-15T09:10:45;2.45;;;1.70;;
20369;SDS011;10344;47.592;9.600;2023-05-15T09:13:15;2.03;;;1.83;;
20369;SDS011;10344;47.592;9.600;2023-05-15T09:15:44;2.10;;;1.90;;
20369;SDS011;10344;47.592;9.600;2023-05-15T09:18:17;2.53;;;2.10;;
20369;SDS011;10344;47.592;9.600;2023-05-15T09:20:53;2.72;;;2.00;;
20369;SDS011;10344;47.592;9.600;2023-05-15T09:23:23;2.30;;;2.10;;
20369;SDS011;10344;47.592;9.600;2023-05-15T09:25:51;2.10;;;1.90;;
20369;SDS011;10344;47.592;9.600;2023-05-15T09:28:29;1.95;;;1.80;;
20369;SDS011;10344;47.592;9.600;2023-05-15T09:31:04;2.20;;;2.00;;
20369;SDS011;10344;47.592;9.600;2023-05-15T09:33:33;2.40;;;2.20;;
20369;SDS011;10344;47.592;9.600;2023-05-15T09:36:13;2.00;;;1.90;;
20369;SDS011;10344;47.592;9.600;2023-05-15T09:38:45;2.00;;;1.80;;
20369;SDS011;10344;47.592;9.600;2023-05-15T09:41:14;1.50;;;1.40;;
20369;SDS011;10344;47.592;9.600;2023-05-15T09:43:52;1.85;;;1.70;;
20369;SDS011;10344;47.592;9.600;2023-05-15T09:46:20;1.70;;;1.60;;
20369;SDS011;10344;47.592;9.600;2023-05-15T09:48:53;1.70;;;1.60;;
20369;SDS011;10344;47.592;9.600;2023-05-15T09:51:19;1.75;;;1.65;;
20369;SDS011;10344;47.592;9.600;2023-05-15T09:53:52;1.60;;;1.50;;
20369;SDS011;10344;47.592;9.600;2023-05-15T09:56:21;1.77;;;1.67;;
20369;SDS011;10344;47.592;9.600;2023-05-15T09:59:08;1.63;;;1.30;;
20369;SDS011;10344;47.592;9.600;2023-05-15T10:01:45;1.65;;;1.52;;
20369;SDS011;10344;47.592;9.600;2023-05-15T10:04:18;1.63;;;1.50;;
20369;SDS011;10344;47.592;9.600;2023-05-15T10:06:44;1.70;;;1.60;;
20369;SDS011;10344;47.592;9.600;2023-05-15T10:09:16;1.60;;;1.50;;
20369;SDS011;10344;47.592;9.600;2023-05-15T10:11:47;1.50;;;1.40;;
20369;SDS011;10344;47.592;9.600;2023-05-15T10:14:20;1.15;;;1.05;;
20369;SDS011;10344;47.592;9.600;2023-05-15T10:16:56;1.10;;;1.00;;
20369;SDS011;10344;47.592;9.600;2023-05-15T10:19:22;1.10;;;1.00;;
20369;SDS011;10344;47.592;9.600;2023-05-15T10:21:57;1.00;;;1.00;;
20369;SDS011;10344;47.592;9.600;2023-05-15T10:24:33;0.80;;;0.80;;
20369;SDS011;10344;47.592;9.600;2023-05-15T10:27:05;1.10;;;1.00;;
20369;SDS011;10344;47.592;9.600;2023-05-15T10:29:37;0.85;;;0.85;;
20369;SDS011;10344;47.592;9.600;2023-05-15T10:32:04;1.40;;;0.80;;
20369;SDS011;10344;47.592;9.600;2023-05-15T10:34:30;1.50;;;0.90;;
20369;SDS011;10344;47.592;9.600;2023-05-15T10:36:57;1.20;;;0.93;;
20369;SDS011;10344;47.592;9.600;2023-05-15T10:39:27;0.90;;;0.90;;
20369;SDS011;10344;47.592;9.600;2023-05-15T10:41:53;0.90;;;0.90;;
20369;SDS011;10344;47.592;9.600;2023-05-15T10:44:29;1.20;;;1.10;;
20369;SDS011;10344;47.592;9.600;2023-05-15T10:46:55;1.30;;;1.20;;
20369;SDS011;10344;47.592;9.600;2023-05-15T10:49:21;1.40;;;1.17;;
20369;SDS011;10344;47.592;9.600;2023-05-15T10:51:58;1.13;;;1.02;;
20369;SDS011;10344;47.592;9.600;2023-05-15T10:54:27;1.40;;;1.30;;
20369;SDS011;10344;47.592;9.600;2023-05-15T10:57:08;1.10;;;1.00;;
20369;SDS011;10344;47.592;9.600;2023-05-15T10:59:40;1.30;;;1.20;;
20369;SDS011;10344;47.592;9.600;2023-05-15T11:02:26;1.13;;;1.02;;
20369;SDS011;10344;47.592;9.600;2023-05-15T11:04:57;1.13;;;1.02;;
20369;SDS011;10344;47.592;9.600;2023-05-15T11:07:30;0.90;;;0.90;;
20369;SDS011;10344;47.592;9.600;2023-05-15T11:12:56;3.22;;;1.10;;
20369;SDS011;10344;47.592;9.600;2023-05-15T11:15:25;1.20;;;1.00;;
20369;SDS011;10344;47.592;9.600;2023-05-15T11:18:04;0.75;;;0.75;;
20369;SDS011;10344;47.592;9.600;2023-05-15T11:20:31;0.90;;;0.90;;
20369;SDS011;10344;47.592;9.600;2023-05-15T11:23:03;0.80;;;0.80;;
20369;SDS011;10344;47.592;9.600;2023-05-15T11:25:29;0.95;;;0.95;;
20369;SDS011;10344;47.592;9.600;2023-05-15T11:28:04;1.35;;;1.25;;
20369;SDS011;10344;47.592;9.600;2023-05-15T11:30:37;1.30;;;1.20;;
20369;SDS011;10344;47.592;9.600;2023-05-15T11:35:56;1.40;;;1.30;;
20369;SDS011;10344;47.592;9.600;2023-05-15T11:38:35;1.08;;;1.00;;
20369;SDS011;10344;47.592;9.600;2023-05-15T11:41:11;1.25;;;1.08;;
20369;SDS011;10344;47.592;9.600;2023-05-15T11:43:44;1.73;;;1.00;;
20369;SDS011;10344;47.592;9.600;2023-05-15T11:46:14;1.00;;;1.00;;
20369;SDS011;10344;47.592;9.600;2023-05-15T11:48:45;1.00;;;1.00;;
20369;SDS011;10344;47.592;9.600;2023-05-15T11:53:54;1.40;;;1.30;;
20369;SDS011;10344;47.592;9.600;2023-05-15T11:56:26;1.40;;;1.30;;
20369;SDS011;10344;47.592;9.600;2023-05-15T11:58:57;2.40;;;1.55;;
20369;SDS011;10344;47.592;9.600;2023-05-15T12:01:38;1.60;;;1.50;;
20369;SDS011;10344;47.592;9.600;2023-05-15T12:04:16;1.13;;;1.13;;
20369;SDS011;10344;47.592;9.600;2023-05-15T12:06:43;1.50;;;1.40;;
20369;SDS011;10344;47.592;9.600;2023-05-15T12:09:14;1.67;;;1.50;;
20369;SDS011;10344;47.592;9.600;2023-05-15T12:11:51;1.40;;;1.30;;
20369;SDS011;10344;47.592;9.600;2023-05-15T12:14:27;1.92;;;1.55;;
20369;SDS011;10344;47.592;9.600;2023-05-15T12:16:58;1.30;;;1.20;;
20369;SDS011;10344;47.592;9.600;2023-05-15T12:19:32;1.35;;;1.25;;
20369;SDS011;10344;47.592;9.600;2023-05-15T12:22:03;1.50;;;1.40;;
20369;SDS011;10344;47.592;9.600;2023-05-15T12:24:36;1.38;;;1.20;;
20369;SDS011;10344;47.592;9.600;2023-05-15T12:27:03;1.45;;;1.35;;
20369;SDS011;10344;47.592;9.600;2023-05-15T12:29:32;1.40;;;1.30;;
20369;SDS011;10344;47.592;9.600;2023-05-15T12:32:07;1.40;;;1.30;;
20369;SDS011;10344;47.592;9.600;2023-05-15T12:34:33;1.30;;;1.20;;
20369;SDS011;10344;47.592;9.600;2023-05-15T12:37:05;1.55;;;1.30;;
20369;SDS011;10344;47.592;9.600;2023-05-15T12:42:18;1.60;;;1.50;;
20369;SDS011;10344;47.592;9.600;2023-05-15T12:44:53;2.40;;;2.10;;
20369;SDS011;10344;47.592;9.600;2023-05-15T12:47:26;2.28;;;2.08;;
20369;SDS011;10344;47.592;9.600;2023-05-15T12:50:01;2.20;;;1.90;;
20369;SDS011;10344;47.592;9.600;2023-05-15T12:52:38;2.30;;;2.10;;
20369;SDS011;10344;47.592;9.600;2023-05-15T12:55:07;2.00;;;1.80;;
20369;SDS011;10344;47.592;9.600;2023-05-15T12:57:41;1.85;;;1.75;;
20369;SDS011;10344;47.592;9.600;2023-05-15T13:00:14;1.85;;;1.73;;
20369;SDS011;10344;47.592;9.600;2023-05-15T13:02:45;2.05;;;1.85;;
20369;SDS011;10344;47.592;9.600;2023-05-15T13:05:18;2.10;;;1.60;;
20369;SDS011;10344;47.592;9.600;2023-05-15T13:07:54;1.80;;;1.70;;
20369;SDS011;10344;47.592;9.600;2023-05-15T13:10:27;1.70;;;1.60;;
20369;SDS011;10344;47.592;9.600;2023-05-15T13:13:06;1.80;;;1.70;;
20369;SDS011;10344;47.592;9.600;2023-05-15T13:15:39;2.10;;;1.90;;
20369;SDS011;10344;47.592;9.600;2023-05-15T13:20:46;1.83;;;1.60;;
20369;SDS011;10344;47.592;9.600;2023-05-15T13:23:16;2.05;;;1.85;;
20369;SDS011;10344;47.592;9.600;2023-05-15T13:25:48;3.20;;;2.10;;
20369;SDS011;10344;47.592;9.600;2023-05-15T13:28:14;1.63;;;1.53;;
20369;SDS011;10344;47.592;9.600;2023-05-15T13:30:40;1.65;;;1.50;;
20369;SDS011;10344;47.592;9.600;2023-05-15T13:33:06;1.42;;;1.33;;
20369;SDS011;10344;47.592;9.600;2023-05-15T13:35:42;1.73;;;1.50;;
20369;SDS011;10344;47.592;9.600;2023-05-15T13:38:10;1.95;;;1.50;;
20369;SDS011;10344;47.592;9.600;2023-05-15T13:40:36;1.55;;;1.45;;
20369;SDS011;10344;47.592;9.600;2023-05-15T13:43:05;1.63;;;1.50;;
20369;SDS011;10344;47.592;9.600;2023-05-15T13:45:33;1.40;;;1.30;;
20369;SDS011;10344;47.592;9.600;2023-05-15T13:47:59;1.70;;;1.35;;
20369;SDS011;10344;47.592;9.600;2023-05-15T13:50:25;1.50;;;1.40;;
20369;SDS011;10344;47.592;9.600;2023-05-15T13:52:54;1.40;;;1.30;;
20369;SDS011;10344;47.592;9.600;2023-05-15T13:55:22;1.40;;;1.30;;
20369;SDS011;10344;47.592;9.600;2023-05-15T13:57:50;1.48;;;1.38;;
20369;SDS011;10344;47.592;9.600;2023-05-15T14:00:18;1.33;;;1.23;;
20369;SDS011;10344;47.592;9.600;2023-05-15T14:02:46;1.33;;;1.23;;
20369;SDS011;10344;47.592;9.600;2023-05-15T14:05:15;1.30;;;1.20;;
20369;SDS011;10344;47.592;9.600;2023-05-15T14:07:41;1.50;;;1.40;;
20369;SDS011;10344;47.592;9.600;2023-05-15T14:10:07;1.40;;;1.30;;
20369;SDS011;10344;47.592;9.600;2023-05-15T14:12:34;2.30;;;1.65;;
20369;SDS011;10344;47.592;9.600;2023-05-15T14:15:03;2.17;;;1.80;;
20369;SDS011;10344;47.592;9.600;2023-05-15T14:17:29;2.50;;;2.13;;
20369;SDS011;10344;47.592;9.600;2023-05-15T14:20:06;1.85;;;1.75;;
20369;SDS011;10344;47.592;9.600;2023-05-15T14:22:35;2.40;;;1.45;;
20369;SDS011;10344;47.592;9.600;2023-05-15T14:25:01;1.85;;;1.52;;
20369;SDS011;10344;47.592;9.600;2023-05-15T14:27:28;1.70;;;1.60;;
20369;SDS011;10344;47.592;9.600;2023-05-15T14:29:54;1.40;;;1.30;;
20369;SDS011;10344;47.592;9.600;2023-05-15T14:32:28;2.25;;;1.30;;
20369;SDS011;10344;47.592;9.600;2023-05-15T14:34:53;1.20;;;1.10;;
20369;SDS011;10344;47.592;9.600;2023-05-15T14:37:25;1.60;;;1.10;;
20369;SDS011;10344;47.592;9.600;2023-05-15T14:39:52;1.30;;;1.20;;
20369;SDS011;10344;47.592;9.600;2023-05-15T14:42:19;1.58;;;1.20;;
20369;SDS011;10344;47.592;9.600;2023-05-15T14:44:45;1.75;;;1.27;;
20369;SDS011;10344;47.592;9.600;2023-05-15T14:47:13;1.43;;;1.10;;
20369;SDS011;10344;47.592;9.600;2023-05-15T14:49:41;1.10;;;0.98;;
20369;SDS011;10344;47.592;9.600;2023-05-15T14:52:08;0.88;;;0.88;;
20369;SDS011;10344;47.592;9.600;2023-05-15T14:54:41;2.00;;;1.30;;
20369;SDS011;10344;47.592;9.600;2023-05-15T14:57:07;1.83;;;1.15;;
20369;SDS011;10344;47.592;9.600;2023-05-15T14:59:33;3.10;;;1.03;;
20369;SDS011;10344;47.592;9.600;2023-05-15T15:02:01;1.90;;;1.20;;
20369;SDS011;10344;47.592;9.600;2023-05-15T15:04:31;1.13;;;1.00;;
20369;SDS011;10344;47.592;9.600;2023-05-15T15:07:01;1.73;;;1.02;;
20369;SDS011;10344;47.592;9.600;2023-05-15T15:09:27;0.95;;;0.90;;
20369;SDS011;10344;47.592;9.600;2023-05-15T15:11:53;2.20;;;1.20;;
20369;SDS011;10344;47.592;9.600;2023-05-15T15:14:21;1.88;;;1.10;;
20369;SDS011;10344;47.592;9.600;2023-05-15T15:16:49;1.30;;;1.20;;
20369;SDS011;10344;47.592;9.600;2023-05-15T15:19:19;2.30;;;1.17;;
20369;SDS011;10344;47.592;9.600;2023-05-15T15:21:44;1.90;;;1.07;;
20369;SDS011;10344;47.592;9.600;2023-05-15T15:24:10;2.87;;;1.40;;
20369;SDS011;10344;47.592;9.600;2023-05-15T15:26:38;1.92;;;1.27;;
20369;SDS011;10344;47.592;9.600;2023-05-15T15:29:06;1.55;;;1.30;;